createdAt,value
2019-03-06T19:33:23.552Z,77.37
2019-03-06T19:35:58.641Z,77.58
2019-03-06T19:38:32.667Z,78.32
2019-03-06T19:41:06.663Z,76.69
2019-03-06T19:43:40.999Z,75.95
2019-03-06T19:46:15.652Z,77.08
2019-03-06T19:48:49.416Z,83.51
2019-03-06T19:51:22.634Z,83.69
2019-03-06T19:53:56.665Z,84.50
2019-03-06T19:56:31.422Z,83.28
2019-03-06T19:59:05.032Z,85.12
2019-03-06T20:01:38.527Z,84.26
2019-03-06T20:04:12.731Z,83.69
2019-03-06T20:06:46.879Z,82.73
2019-03-06T20:09:27.464Z,82.81
2019-03-06T20:12:00.771Z,85.01
2019-03-06T20:14:34.338Z,83.62
2019-03-06T20:17:07.815Z,83.99
2019-03-06T20:19:41.294Z,84.33
2019-03-06T20:22:16.422Z,81.89
2019-03-06T20:24:49.211Z,81.83
2019-03-06T20:27:23.010Z,84.14
2019-03-06T20:29:56.975Z,83.00
2019-03-06T20:32:30.537Z,82.34
2019-03-06T20:35:04.021Z,81.92
2019-03-06T20:37:37.660Z,81.72
2019-03-06T20:40:09.947Z,81.78
2019-03-06T20:42:43.202Z,83.08
2019-03-06T20:45:16.991Z,82.41
2019-03-06T20:47:50.105Z,81.88
2019-03-06T20:50:23.948Z,82.06
2019-03-06T20:52:56.728Z,83.09
2019-03-06T20:55:29.874Z,82.45
2019-03-06T20:58:04.039Z,82.76
2019-03-06T21:00:37.167Z,83.79
2019-03-06T21:03:10.194Z,83.96
2019-03-06T21:05:43.778Z,85.15
2019-03-06T21:08:17.503Z,84.53
2019-03-06T21:10:51.414Z,84.35
2019-03-06T21:13:24.496Z,82.48
2019-03-06T21:15:57.179Z,83.32
2019-03-06T21:18:30.664Z,86.73
2019-03-06T21:21:04.430Z,87.96
2019-03-06T21:23:38.253Z,88.87
2019-03-06T21:26:12.022Z,91.72
2019-03-06T21:28:45.694Z,96.17
2019-03-06T21:31:19.690Z,99.14
2019-03-06T21:33:53.767Z,98.30
2019-03-06T21:36:27.553Z,100.00
2019-03-06T21:39:03.883Z,100.00
2019-03-06T21:41:39.697Z,100.00
2019-03-06T21:44:13.248Z,100.00
2019-03-06T21:46:47.145Z,100.00
2019-03-06T21:49:20.975Z,100.00
2019-03-06T21:51:54.081Z,100.00
2019-03-06T21:54:27.332Z,100.00
2019-03-06T21:57:01.082Z,100.00
2019-03-06T21:59:35.474Z,100.00
2019-03-06T22:02:09.078Z,100.00
2019-03-06T22:04:44.001Z,100.00
2019-03-06T22:07:17.646Z,100.00
2019-03-06T22:09:50.769Z,100.00
2019-03-06T22:12:23.763Z,100.00
2019-03-06T22:14:56.029Z,100.00
2019-03-06T22:17:28.654Z,100.00
2019-03-06T22:20:01.619Z,100.00
2019-03-06T22:22:34.659Z,100.00
2019-03-06T22:25:08.491Z,100.00
2019-03-06T22:27:42.320Z,100.00
2019-03-06T22:30:16.937Z,100.00
2019-03-06T22:32:50.642Z,100.00
2019-03-06T22:35:24.163Z,100.00
2019-03-06T22:37:57.593Z,100.00
2019-03-06T22:40:30.662Z,100.00
2019-03-06T22:43:04.563Z,100.00
2019-03-06T22:45:38.058Z,100.00
2019-03-06T22:48:10.724Z,100.00
2019-03-06T22:50:44.067Z,100.00
2019-03-06T22:53:17.108Z,100.00
2019-03-06T22:55:50.606Z,100.00
2019-03-06T22:58:23.902Z,100.00
2019-03-06T23:01:01.604Z,100.00
2019-03-06T23:03:36.233Z,100.00
2019-03-06T23:06:08.414Z,100.00
2019-03-06T23:08:41.924Z,100.00
2019-03-06T23:11:15.732Z,100.00
2019-03-06T23:13:49.293Z,100.00
2019-03-06T23:16:21.610Z,100.00
2019-03-06T23:18:54.597Z,100.00
2019-03-06T23:21:28.261Z,100.00
2019-03-06T23:24:01.338Z,100.00
2019-03-06T23:26:42.503Z,100.00
2019-03-06T23:29:10.157Z,100.00
2019-03-06T23:31:43.845Z,100.00
2019-03-06T23:34:16.530Z,100.00
2019-03-06T23:36:49.048Z,100.00
2019-03-06T23:39:22.932Z,100.00
2019-03-06T23:41:56.532Z,100.00
2019-03-06T23:44:29.551Z,100.00
2019-03-06T23:47:03.048Z,100.00
2019-03-06T23:49:37.046Z,100.00
2019-03-06T23:52:15.912Z,100.00
2019-03-06T23:54:48.977Z,100.00
2019-03-06T23:57:22.474Z,100.00
2019-03-06T23:59:55.979Z,100.00
